sensor_id;sensor_type;location;lat;lon;timestamp;temperature;humidity
51719;DHT22;37795;53.236;5.704;2022-09-09T00:04:36;14.90;81.00
51719;DHT22;37795;53.236;5.704;2022-09-09T00:13:02;14.90;81.10
51719;DHT22;37795;53.236;5.704;2022-09-09T00:18:49;14.90;81.60
51719;DHT22;37795;53.236;5.704;2022-09-09T00:21:18;14.90;81.40
51719;DHT22;37795;53.236;5.704;2022-09-09T00:23:53;14.90;81.30
51719;DHT22;37795;53.236;5.704;2022-09-09T00:26:38;14.90;81.30
51719;DHT22;37795;53.236;5.704;2022-09-09T00:31:38;14.90;81.40
51719;DHT22;37795;53.236;5.704;2022-09-09T00:34:20;14.90;81.40
51719;DHT22;37795;53.236;5.704;2022-09-09T00:36:49;14.90;81.50
51719;DHT22;37795;53.236;5.704;2022-09-09T00:39:34;14.90;81.50
51719;DHT22;37795;53.236;5.704;2022-09-09T00:42:16;14.80;81.60
51719;DHT22;37795;53.236;5.704;2022-09-09T00:45:01;14.90;81.50
51719;DHT22;37795;53.236;5.704;2022-09-09T00:47:46;14.90;81.50
51719;DHT22;37795;53.236;5.704;2022-09-09T00:58:31;14.70;82.00
51719;DHT22;37795;53.236;5.704;2022-09-09T01:01:11;14.70;82.10
51719;DHT22;37795;53.236;5.704;2022-09-09T01:03:49;14.70;82.20
51719;DHT22;37795;53.236;5.704;2022-09-09T01:06:39;14.80;82.10
51719;DHT22;37795;53.236;5.704;2022-09-09T01:17:11;14.70;82.30
51719;DHT22;37795;53.236;5.704;2022-09-09T01:27:43;14.70;82.40
51719;DHT22;37795;53.236;5.704;2022-09-09T01:30:13;14.70;82.40
51719;DHT22;37795;53.236;5.704;2022-09-09T01:32:44;14.70;82.30
51719;DHT22;37795;53.236;5.704;2022-09-09T01:37:58;14.70;82.10
51719;DHT22;37795;53.236;5.704;2022-09-09T01:40:25;14.70;81.90
51719;DHT22;37795;53.236;5.704;2022-09-09T01:42:52;14.70;82.10
51719;DHT22;37795;53.236;5.704;2022-09-09T01:45:18;14.60;82.00
51719;DHT22;37795;53.236;5.704;2022-09-09T01:47:45;14.60;81.80
51719;DHT22;37795;53.236;5.704;2022-09-09T01:50:14;14.50;82.40
51719;DHT22;37795;53.236;5.704;2022-09-09T01:52:40;14.50;82.20
51719;DHT22;37795;53.236;5.704;2022-09-09T01:55:07;14.50;82.40
51719;DHT22;37795;53.236;5.704;2022-09-09T01:57:56;14.50;82.60
51719;DHT22;37795;53.236;5.704;2022-09-09T02:00:24;14.50;82.30
51719;DHT22;37795;53.236;5.704;2022-09-09T02:03:04;14.50;82.60
51719;DHT22;37795;53.236;5.704;2022-09-09T02:05:42;14.50;82.60
51719;DHT22;37795;53.236;5.704;2022-09-09T02:08:40;14.50;82.80
51719;DHT22;37795;53.236;5.704;2022-09-09T02:11:14;14.50;82.90
51719;DHT22;37795;53.236;5.704;2022-09-09T02:13:41;14.60;82.70
51719;DHT22;37795;53.236;5.704;2022-09-09T02:21:35;14.40;83.00
51719;DHT22;37795;53.236;5.704;2022-09-09T02:24:05;14.40;83.00
51719;DHT22;37795;53.236;5.704;2022-09-09T02:26:33;14.40;83.20
51719;DHT22;37795;53.236;5.704;2022-09-09T02:29:03;14.40;83.00
51719;DHT22;37795;53.236;5.704;2022-09-09T02:31:30;14.40;82.80
51719;DHT22;37795;53.236;5.704;2022-09-09T02:34:00;14.30;83.00
51719;DHT22;37795;53.236;5.704;2022-09-09T02:36:30;14.40;82.80
51719;DHT22;37795;53.236;5.704;2022-09-09T02:38:58;14.40;82.80
51719;DHT22;37795;53.236;5.704;2022-09-09T02:41:33;14.30;82.80
51719;DHT22;37795;53.236;5.704;2022-09-09T02:44:00;14.30;82.70
51719;DHT22;37795;53.236;5.704;2022-09-09T02:52:32;14.30;82.30
51719;DHT22;37795;53.236;5.704;2022-09-09T02:55:08;14.20;82.70
51719;DHT22;37795;53.236;5.704;2022-09-09T02:57:37;14.20;83.00
51719;DHT22;37795;53.236;5.704;2022-09-09T03:00:04;14.20;83.10
51719;DHT22;37795;53.236;5.704;2022-09-09T03:02:30;14.20;83.20
51719;DHT22;37795;53.236;5.704;2022-09-09T03:04:56;14.20;83.10
51719;DHT22;37795;53.236;5.704;2022-09-09T03:07:22;14.30;83.20
51719;DHT22;37795;53.236;5.704;2022-09-09T03:09:48;14.20;83.20
51719;DHT22;37795;53.236;5.704;2022-09-09T03:12:14;14.30;83.40
51719;DHT22;37795;53.236;5.704;2022-09-09T03:14:39;14.30;83.30
51719;DHT22;37795;53.236;5.704;2022-09-09T03:17:06;14.30;83.20
51719;DHT22;37795;53.236;5.704;2022-09-09T03:19:32;14.30;83.10
51719;DHT22;37795;53.236;5.704;2022-09-09T03:21:58;14.30;83.10
51719;DHT22;37795;53.236;5.704;2022-09-09T03:24:25;14.20;83.40
51719;DHT22;37795;53.236;5.704;2022-09-09T03:26:50;14.30;83.10
51719;DHT22;37795;53.236;5.704;2022-09-09T03:29:17;14.30;83.00
51719;DHT22;37795;53.236;5.704;2022-09-09T03:31:44;14.20;83.40
51719;DHT22;37795;53.236;5.704;2022-09-09T03:34:10;14.10;84.40
51719;DHT22;37795;53.236;5.704;2022-09-09T03:36:36;14.20;84.20
51719;DHT22;37795;53.236;5.704;2022-09-09T03:39:03;14.30;84.10
51719;DHT22;37795;53.236;5.704;2022-09-09T03:41:30;14.40;84.30
51719;DHT22;37795;53.236;5.704;2022-09-09T03:43:56;14.40;84.60
51719;DHT22;37795;53.236;5.704;2022-09-09T03:46:23;14.50;85.10
51719;DHT22;37795;53.236;5.704;2022-09-09T03:48:50;14.60;85.20
51719;DHT22;37795;53.236;5.704;2022-09-09T03:51:16;14.70;85.30
51719;DHT22;37795;53.236;5.704;2022-09-09T03:53:42;14.70;85.30
51719;DHT22;37795;53.236;5.704;2022-09-09T03:56:08;14.80;85.40
51719;DHT22;37795;53.236;5.704;2022-09-09T03:58:35;14.80;85.30
51719;DHT22;37795;53.236;5.704;2022-09-09T04:01:12;14.90;85.00
51719;DHT22;37795;53.236;5.704;2022-09-09T04:03:39;14.90;84.80
51719;DHT22;37795;53.236;5.704;2022-09-09T04:06:05;14.90;84.80
51719;DHT22;37795;53.236;5.704;2022-09-09T04:08:33;14.90;84.60
51719;DHT22;37795;53.236;5.704;2022-09-09T04:10:59;14.90;84.50
51719;DHT22;37795;53.236;5.704;2022-09-09T04:13:27;14.80;84.50
51719;DHT22;37795;53.236;5.704;2022-09-09T04:15:55;14.80;84.60
51719;DHT22;37795;53.236;5.704;2022-09-09T04:18:22;14.80;84.60
51719;DHT22;37795;53.236;5.704;2022-09-09T04:20:51;14.70;84.50
51719;DHT22;37795;53.236;5.704;2022-09-09T04:23:18;14.70;84.30
51719;DHT22;37795;53.236;5.704;2022-09-09T04:25:47;14.70;84.10
51719;DHT22;37795;53.236;5.704;2022-09-09T04:28:14;14.60;84.00
51719;DHT22;37795;53.236;5.704;2022-09-09T04:30:40;14.60;83.80
51719;DHT22;37795;53.236;5.704;2022-09-09T04:33:07;14.60;83.90
51719;DHT22;37795;53.236;5.704;2022-09-09T04:35:33;14.50;84.10
51719;DHT22;37795;53.236;5.704;2022-09-09T04:37:59;14.50;83.90
51719;DHT22;37795;53.236;5.704;2022-09-09T04:40:25;14.50;84.10
51719;DHT22;37795;53.236;5.704;2022-09-09T04:42:51;14.50;84.20
51719;DHT22;37795;53.236;5.704;2022-09-09T04:45:17;14.50;84.10
51719;DHT22;37795;53.236;5.704;2022-09-09T04:47:43;14.50;84.00
51719;DHT22;37795;53.236;5.704;2022-09-09T04:50:09;14.40;84.20
51719;DHT22;37795;53.236;5.704;2022-09-09T04:52:35;14.40;84.20
51719;DHT22;37795;53.236;5.704;2022-09-09T04:55:01;14.40;84.20
51719;DHT22;37795;53.236;5.704;2022-09-09T04:57:27;14.40;84.20
51719;DHT22;37795;53.236;5.704;2022-09-09T04:59:54;14.40;84.30
51719;DHT22;37795;53.236;5.704;2022-09-09T05:02:20;14.40;84.10
51719;DHT22;37795;53.236;5.704;2022-09-09T05:04:45;14.40;84.30
51719;DHT22;37795;53.236;5.704;2022-09-09T05:07:11;14.40;84.10
51719;DHT22;37795;53.236;5.704;2022-09-09T05:09:37;14.40;84.30
51719;DHT22;37795;53.236;5.704;2022-09-09T05:12:02;14.40;84.60
51719;DHT22;37795;53.236;5.704;2022-09-09T05:14:28;14.40;84.60
51719;DHT22;37795;53.236;5.704;2022-09-09T05:16:55;14.40;84.70
51719;DHT22;37795;53.236;5.704;2022-09-09T05:19:21;14.40;84.70
51719;DHT22;37795;53.236;5.704;2022-09-09T05:21:47;14.40;84.80
51719;DHT22;37795;53.236;5.704;2022-09-09T05:24:13;14.30;85.10
51719;DHT22;37795;53.236;5.704;2022-09-09T05:26:39;14.30;85.40
51719;DHT22;37795;53.236;5.704;2022-09-09T05:29:05;14.40;85.20
51719;DHT22;37795;53.236;5.704;2022-09-09T05:31:31;14.40;85.20
51719;DHT22;37795;53.236;5.704;2022-09-09T05:33:58;14.40;85.20
51719;DHT22;37795;53.236;5.704;2022-09-09T05:36:24;14.40;85.10
51719;DHT22;37795;53.236;5.704;2022-09-09T05:38:50;14.30;85.40
51719;DHT22;37795;53.236;5.704;2022-09-09T05:41:17;14.40;85.30
51719;DHT22;37795;53.236;5.704;2022-09-09T05:43:44;14.40;85.30
51719;DHT22;37795;53.236;5.704;2022-09-09T05:46:13;14.40;85.30
51719;DHT22;37795;53.236;5.704;2022-09-09T05:48:41;14.40;85.20
51719;DHT22;37795;53.236;5.704;2022-09-09T05:51:12;14.40;85.50
51719;DHT22;37795;53.236;5.704;2022-09-09T05:53:41;14.50;85.40
51719;DHT22;37795;53.236;5.704;2022-09-09T05:56:10;14.50;85.20
51719;DHT22;37795;53.236;5.704;2022-09-09T05:58:36;14.50;85.10
51719;DHT22;37795;53.236;5.704;2022-09-09T06:01:10;14.60;85.20
51719;DHT22;37795;53.236;5.704;2022-09-09T06:03:38;14.60;85.20
51719;DHT22;37795;53.236;5.704;2022-09-09T06:06:06;14.60;85.30
51719;DHT22;37795;53.236;5.704;2022-09-09T06:08:37;14.60;85.10
51719;DHT22;37795;53.236;5.704;2022-09-09T06:11:16;14.70;85.00
51719;DHT22;37795;53.236;5.704;2022-09-09T06:13:42;14.80;84.90
51719;DHT22;37795;53.236;5.704;2022-09-09T06:16:13;14.80;84.90
51719;DHT22;37795;53.236;5.704;2022-09-09T06:18:40;14.80;84.60
51719;DHT22;37795;53.236;5.704;2022-09-09T06:21:17;14.90;84.50
51719;DHT22;37795;53.236;5.704;2022-09-09T06:23:44;14.90;84.60
51719;DHT22;37795;53.236;5.704;2022-09-09T06:26:14;14.90;84.70
51719;DHT22;37795;53.236;5.704;2022-09-09T06:28:40;14.90;84.60
51719;DHT22;37795;53.236;5.704;2022-09-09T06:31:10;14.90;84.70
51719;DHT22;37795;53.236;5.704;2022-09-09T06:33:38;14.90;84.50
51719;DHT22;37795;53.236;5.704;2022-09-09T06:36:10;15.00;84.40
51719;DHT22;37795;53.236;5.704;2022-09-09T06:38:36;15.00;84.50
51719;DHT22;37795;53.236;5.704;2022-09-09T06:41:02;15.00;84.20
51719;DHT22;37795;53.236;5.704;2022-09-09T06:43:28;15.00;84.10
51719;DHT22;37795;53.236;5.704;2022-09-09T06:45:59;15.00;84.30
51719;DHT22;37795;53.236;5.704;2022-09-09T06:48:26;15.10;84.40
51719;DHT22;37795;53.236;5.704;2022-09-09T06:51:10;15.10;84.10
51719;DHT22;37795;53.236;5.704;2022-09-09T07:00:29;15.30;83.70
51719;DHT22;37795;53.236;5.704;2022-09-09T07:02:55;14.90;84.30
51719;DHT22;37795;53.236;5.704;2022-09-09T07:05:21;15.10;83.90
51719;DHT22;37795;53.236;5.704;2022-09-09T07:07:47;15.10;83.70
51719;DHT22;37795;53.236;5.704;2022-09-09T07:10:12;15.10;83.50
51719;DHT22;37795;53.236;5.704;2022-09-09T07:12:38;15.20;83.70
51719;DHT22;37795;53.236;5.704;2022-09-09T07:15:04;15.30;83.50
51719;DHT22;37795;53.236;5.704;2022-09-09T07:17:30;15.20;82.70
51719;DHT22;37795;53.236;5.704;2022-09-09T07:19:56;15.20;83.10
51719;DHT22;37795;53.236;5.704;2022-09-09T07:22:22;15.30;83.00
51719;DHT22;37795;53.236;5.704;2022-09-09T07:24:48;15.30;83.00
51719;DHT22;37795;53.236;5.704;2022-09-09T07:27:15;15.30;82.70
51719;DHT22;37795;53.236;5.704;2022-09-09T07:29:40;15.50;82.90
51719;DHT22;37795;53.236;5.704;2022-09-09T07:32:06;15.60;81.90
51719;DHT22;37795;53.236;5.704;2022-09-09T07:34:32;15.80;81.50
51719;DHT22;37795;53.236;5.704;2022-09-09T07:36:57;15.90;80.70
51719;DHT22;37795;53.236;5.704;2022-09-09T07:39:23;15.80;80.90
51719;DHT22;37795;53.236;5.704;2022-09-09T07:41:49;15.80;80.80
51719;DHT22;37795;53.236;5.704;2022-09-09T07:44:21;15.80;81.30
51719;DHT22;37795;53.236;5.704;2022-09-09T07:46:47;15.90;81.00
51719;DHT22;37795;53.236;5.704;2022-09-09T07:49:14;16.00;80.50
51719;DHT22;37795;53.236;5.704;2022-09-09T07:51:42;16.20;80.60
51719;DHT22;37795;53.236;5.704;2022-09-09T07:54:10;16.60;79.50
51719;DHT22;37795;53.236;5.704;2022-09-09T07:56:37;16.80;79.20
51719;DHT22;37795;53.236;5.704;2022-09-09T07:59:05;17.00;77.70
51719;DHT22;37795;53.236;5.704;2022-09-09T08:01:50;16.80;77.90
51719;DHT22;37795;53.236;5.704;2022-09-09T08:04:20;17.00;76.80
51719;DHT22;37795;53.236;5.704;2022-09-09T08:06:52;17.10;77.20
51719;DHT22;37795;53.236;5.704;2022-09-09T08:09:18;17.10;77.00
51719;DHT22;37795;53.236;5.704;2022-09-09T08:11:44;17.20;76.90
51719;DHT22;37795;53.236;5.704;2022-09-09T08:14:11;17.10;76.60
51719;DHT22;37795;53.236;5.704;2022-09-09T08:16:43;17.10;77.20
51719;DHT22;37795;53.236;5.704;2022-09-09T08:19:09;17.40;77.00
51719;DHT22;37795;53.236;5.704;2022-09-09T08:21:37;17.50;77.20
51719;DHT22;37795;53.236;5.704;2022-09-09T08:24:06;17.70;76.60
51719;DHT22;37795;53.236;5.704;2022-09-09T08:26:37;17.60;76.80
51719;DHT22;37795;53.236;5.704;2022-09-09T08:29:05;17.50;76.30
51719;DHT22;37795;53.236;5.704;2022-09-09T08:31:40;17.50;76.50
51719;DHT22;37795;53.236;5.704;2022-09-09T08:34:07;17.30;76.70
51719;DHT22;37795;53.236;5.704;2022-09-09T08:36:35;17.20;77.40
51719;DHT22;37795;53.236;5.704;2022-09-09T08:39:05;17.20;77.70
51719;DHT22;37795;53.236;5.704;2022-09-09T08:52:30;18.10;74.30
51719;DHT22;37795;53.236;5.704;2022-09-09T08:55:02;18.20;75.00
51719;DHT22;37795;53.236;5.704;2022-09-09T08:57:30;18.20;75.10
51719;DHT22;37795;53.236;5.704;2022-09-09T08:59:58;18.00;74.80
51719;DHT22;37795;53.236;5.704;2022-09-09T09:05:37;17.90;75.30
51719;DHT22;37795;53.236;5.704;2022-09-09T09:08:47;17.90;75.60
51719;DHT22;37795;53.236;5.704;2022-09-09T09:11:17;18.00;74.80
51719;DHT22;37795;53.236;5.704;2022-09-09T09:13:47;17.90;75.10
51719;DHT22;37795;53.236;5.704;2022-09-09T09:18:52;17.60;75.80
51719;DHT22;37795;53.236;5.704;2022-09-09T09:24:00;17.50;76.00
51719;DHT22;37795;53.236;5.704;2022-09-09T09:26:33;17.50;76.20
51719;DHT22;37795;53.236;5.704;2022-09-09T09:29:00;17.50;76.10
51719;DHT22;37795;53.236;5.704;2022-09-09T09:31:27;17.60;76.20
51719;DHT22;37795;53.236;5.704;2022-09-09T09:33:54;17.80;74.70
51719;DHT22;37795;53.236;5.704;2022-09-09T09:36:52;17.80;73.90
51719;DHT22;37795;53.236;5.704;2022-09-09T09:39:26;18.00;73.50
51719;DHT22;37795;53.236;5.704;2022-09-09T09:41:53;18.00;72.70
51719;DHT22;37795;53.236;5.704;2022-09-09T09:44:28;18.20;73.00
51719;DHT22;37795;53.236;5.704;2022-09-09T09:47:07;18.00;73.20
51719;DHT22;37795;53.236;5.704;2022-09-09T09:49:33;18.20;73.70
51719;DHT22;37795;53.236;5.704;2022-09-09T09:52:06;18.20;73.00
51719;DHT22;37795;53.236;5.704;2022-09-09T09:54:41;17.90;73.10
51719;DHT22;37795;53.236;5.704;2022-09-09T09:57:12;18.30;73.10
51719;DHT22;37795;53.236;5.704;2022-09-09T09:59:38;18.80;71.90
51719;DHT22;37795;53.236;5.704;2022-09-09T10:02:21;19.10;70.70
51719;DHT22;37795;53.236;5.704;2022-09-09T10:05:01;19.30;70.80
51719;DHT22;37795;53.236;5.704;2022-09-09T10:07:27;19.20;69.10
51719;DHT22;37795;53.236;5.704;2022-09-09T10:09:55;19.00;70.00
51719;DHT22;37795;53.236;5.704;2022-09-09T10:18:53;18.80;70.50
51719;DHT22;37795;53.236;5.704;2022-09-09T10:34:56;20.10;66.00
51719;DHT22;37795;53.236;5.704;2022-09-09T10:40:08;19.90;66.20
51719;DHT22;37795;53.236;5.704;2022-09-09T10:42:40;19.70;66.80
51719;DHT22;37795;53.236;5.704;2022-09-09T10:45:17;19.80;66.80
51719;DHT22;37795;53.236;5.704;2022-09-09T10:48:00;20.10;66.40
51719;DHT22;37795;53.236;5.704;2022-09-09T11:00:38;20.00;67.30
51719;DHT22;37795;53.236;5.704;2022-09-09T11:03:05;20.60;66.80
51719;DHT22;37795;53.236;5.704;2022-09-09T11:05:44;20.80;64.10
51719;DHT22;37795;53.236;5.704;2022-09-09T11:08:20;21.50;62.30
51719;DHT22;37795;53.236;5.704;2022-09-09T11:11:17;21.70;61.80
51719;DHT22;37795;53.236;5.704;2022-09-09T11:13:55;20.90;62.10
51719;DHT22;37795;53.236;5.704;2022-09-09T11:16:40;20.50;64.30
51719;DHT22;37795;53.236;5.704;2022-09-09T11:21:49;20.40;64.00
51719;DHT22;37795;53.236;5.704;2022-09-09T11:27:02;20.00;65.60
51719;DHT22;37795;53.236;5.704;2022-09-09T11:32:27;19.60;67.00
51719;DHT22;37795;53.236;5.704;2022-09-09T11:38:02;19.50;67.70
51719;DHT22;37795;53.236;5.704;2022-09-09T11:40:32;19.70;68.00
51719;DHT22;37795;53.236;5.704;2022-09-09T11:43:43;19.90;66.80
51719;DHT22;37795;53.236;5.704;2022-09-09T11:46:10;20.60;65.30
51719;DHT22;37795;53.236;5.704;2022-09-09T11:48:57;21.20;63.00
51719;DHT22;37795;53.236;5.704;2022-09-09T11:51:28;21.00;62.70
51719;DHT22;37795;53.236;5.704;2022-09-09T11:54:00;21.70;61.10
51719;DHT22;37795;53.236;5.704;2022-09-09T11:56:44;22.10;61.40
51719;DHT22;37795;53.236;5.704;2022-09-09T11:59:23;22.20;59.70
51719;DHT22;37795;53.236;5.704;2022-09-09T12:02:03;22.30;58.80
51719;DHT22;37795;53.236;5.704;2022-09-09T12:04:42;22.20;59.60
51719;DHT22;37795;53.236;5.704;2022-09-09T12:09:58;21.40;60.60
51719;DHT22;37795;53.236;5.704;2022-09-09T12:12:32;20.80;61.90
51719;DHT22;37795;53.236;5.704;2022-09-09T12:17:47;20.20;64.00
51719;DHT22;37795;53.236;5.704;2022-09-09T12:26:23;19.90;64.50
51719;DHT22;37795;53.236;5.704;2022-09-09T12:29:01;19.70;65.90
51719;DHT22;37795;53.236;5.704;2022-09-09T12:36:58;19.70;67.80
51719;DHT22;37795;53.236;5.704;2022-09-09T12:39:36;19.90;67.70
51719;DHT22;37795;53.236;5.704;2022-09-09T12:42:03;19.90;67.30
51719;DHT22;37795;53.236;5.704;2022-09-09T12:44:29;19.90;66.70
51719;DHT22;37795;53.236;5.704;2022-09-09T12:46:58;20.40;66.10
51719;DHT22;37795;53.236;5.704;2022-09-09T12:49:34;20.40;64.70
51719;DHT22;37795;53.236;5.704;2022-09-09T12:52:12;20.80;63.90
51719;DHT22;37795;53.236;5.704;2022-09-09T12:54:44;21.50;62.90
51719;DHT22;37795;53.236;5.704;2022-09-09T12:57:12;22.10;61.40
51719;DHT22;37795;53.236;5.704;2022-09-09T12:59:41;21.80;61.10
51719;DHT22;37795;53.236;5.704;2022-09-09T13:02:25;21.70;61.60
51719;DHT22;37795;53.236;5.704;2022-09-09T13:04:52;22.50;59.10
51719;DHT22;37795;53.236;5.704;2022-09-09T13:07:19;21.90;60.40
51719;DHT22;37795;53.236;5.704;2022-09-09T13:09:46;22.80;59.20
51719;DHT22;37795;53.236;5.704;2022-09-09T13:12:21;22.00;59.10
51719;DHT22;37795;53.236;5.704;2022-09-09T13:14:53;21.70;60.20
51719;DHT22;37795;53.236;5.704;2022-09-09T13:17:27;21.40;60.80
51719;DHT22;37795;53.236;5.704;2022-09-09T13:19:56;21.10;61.20
51719;DHT22;37795;53.236;5.704;2022-09-09T13:22:33;20.80;62.30
51719;DHT22;37795;53.236;5.704;2022-09-09T13:25:25;20.70;63.70
51719;DHT22;37795;53.236;5.704;2022-09-09T13:30:30;20.50;64.40
51719;DHT22;37795;53.236;5.704;2022-09-09T13:35:27;20.30;65.00
51719;DHT22;37795;53.236;5.704;2022-09-09T13:37:53;20.30;65.00
51719;DHT22;37795;53.236;5.704;2022-09-09T13:40:21;20.40;63.50
51719;DHT22;37795;53.236;5.704;2022-09-09T13:42:50;20.40;63.50
51719;DHT22;37795;53.236;5.704;2022-09-09T13:45:25;20.40;63.20
51719;DHT22;37795;53.236;5.704;2022-09-09T13:47:53;20.00;64.50
51719;DHT22;37795;53.236;5.704;2022-09-09T13:50:25;19.90;65.30
51719;DHT22;37795;53.236;5.704;2022-09-09T13:52:53;19.60;68.20
51719;DHT22;37795;53.236;5.704;2022-09-09T13:55:23;19.70;69.70
51719;DHT22;37795;53.236;5.704;2022-09-09T13:57:54;19.90;69.90
51719;DHT22;37795;53.236;5.704;2022-09-09T14:00:21;20.50;67.40
51719;DHT22;37795;53.236;5.704;2022-09-09T14:02:47;20.70;66.90
51719;DHT22;37795;53.236;5.704;2022-09-09T14:05:14;21.90;63.90
51719;DHT22;37795;53.236;5.704;2022-09-09T14:07:41;22.90;61.60
51719;DHT22;37795;53.236;5.704;2022-09-09T14:10:08;23.10;59.60
51719;DHT22;37795;53.236;5.704;2022-09-09T14:12:34;23.10;59.40
51719;DHT22;37795;53.236;5.704;2022-09-09T14:15:01;22.50;61.00
51719;DHT22;37795;53.236;5.704;2022-09-09T14:17:27;22.80;61.60
51719;DHT22;37795;53.236;5.704;2022-09-09T14:19:55;23.60;58.40
51719;DHT22;37795;53.236;5.704;2022-09-09T14:22:21;23.10;58.30
51719;DHT22;37795;53.236;5.704;2022-09-09T14:24:47;23.50;58.20
51719;DHT22;37795;53.236;5.704;2022-09-09T14:27:13;23.10;57.70
51719;DHT22;37795;53.236;5.704;2022-09-09T14:29:39;22.50;59.80
51719;DHT22;37795;53.236;5.704;2022-09-09T14:32:05;22.40;60.50
51719;DHT22;37795;53.236;5.704;2022-09-09T14:34:30;23.20;58.00
51719;DHT22;37795;53.236;5.704;2022-09-09T14:36:58;22.60;59.20
51719;DHT22;37795;53.236;5.704;2022-09-09T14:39:24;22.60;59.30
51719;DHT22;37795;53.236;5.704;2022-09-09T14:41:49;22.90;58.40
51719;DHT22;37795;53.236;5.704;2022-09-09T14:44:15;22.60;58.40
51719;DHT22;37795;53.236;5.704;2022-09-09T14:46:41;23.40;57.40
51719;DHT22;37795;53.236;5.704;2022-09-09T14:49:10;22.10;59.20
51719;DHT22;37795;53.236;5.704;2022-09-09T14:51:36;21.60;60.20
51719;DHT22;37795;53.236;5.704;2022-09-09T14:54:02;21.40;61.40
51719;DHT22;37795;53.236;5.704;2022-09-09T14:56:30;21.00;62.80
51719;DHT22;37795;53.236;5.704;2022-09-09T14:58:58;20.50;62.70
51719;DHT22;37795;53.236;5.704;2022-09-09T15:01:24;19.70;63.90
51719;DHT22;37795;53.236;5.704;2022-09-09T15:03:58;19.10;67.90
51719;DHT22;37795;53.236;5.704;2022-09-09T15:06:26;19.50;71.00
51719;DHT22;37795;53.236;5.704;2022-09-09T15:08:53;20.00;69.10
51719;DHT22;37795;53.236;5.704;2022-09-09T15:11:20;20.70;69.00
51719;DHT22;37795;53.236;5.704;2022-09-09T15:13:46;21.30;64.90
51719;DHT22;37795;53.236;5.704;2022-09-09T15:16:13;21.20;64.50
51719;DHT22;37795;53.236;5.704;2022-09-09T15:18:40;22.60;63.60
51719;DHT22;37795;53.236;5.704;2022-09-09T15:21:12;23.50;61.30
51719;DHT22;37795;53.236;5.704;2022-09-09T15:23:38;23.10;61.50
51719;DHT22;37795;53.236;5.704;2022-09-09T15:26:05;22.70;61.70
51719;DHT22;37795;53.236;5.704;2022-09-09T15:28:35;22.60;63.40
51719;DHT22;37795;53.236;5.704;2022-09-09T15:31:06;23.80;60.80
51719;DHT22;37795;53.236;5.704;2022-09-09T15:33:33;23.20;61.80
51719;DHT22;37795;53.236;5.704;2022-09-09T15:35:59;22.50;62.40
51719;DHT22;37795;53.236;5.704;2022-09-09T15:38:25;22.10;64.10
51719;DHT22;37795;53.236;5.704;2022-09-09T15:40:56;21.70;65.70
51719;DHT22;37795;53.236;5.704;2022-09-09T15:43:22;21.50;65.70
51719;DHT22;37795;53.236;5.704;2022-09-09T15:45:53;21.50;66.60
51719;DHT22;37795;53.236;5.704;2022-09-09T15:48:30;21.10;66.10
51719;DHT22;37795;53.236;5.704;2022-09-09T15:51:03;21.10;66.70
51719;DHT22;37795;53.236;5.704;2022-09-09T15:53:30;21.10;67.40
51719;DHT22;37795;53.236;5.704;2022-09-09T15:55:58;20.80;67.30
51719;DHT22;37795;53.236;5.704;2022-09-09T15:58:24;20.80;68.50
51719;DHT22;37795;53.236;5.704;2022-09-09T16:00:50;20.70;68.90
51719;DHT22;37795;53.236;5.704;2022-09-09T16:03:16;20.50;68.70
51719;DHT22;37795;53.236;5.704;2022-09-09T16:05:42;20.40;69.50
51719;DHT22;37795;53.236;5.704;2022-09-09T16:08:08;20.10;69.40
51719;DHT22;37795;53.236;5.704;2022-09-09T16:10:34;20.00;70.10
51719;DHT22;37795;53.236;5.704;2022-09-09T16:13:00;19.90;70.70
51719;DHT22;37795;53.236;5.704;2022-09-09T16:15:25;19.70;71.60
51719;DHT22;37795;53.236;5.704;2022-09-09T16:17:53;19.60;71.60
51719;DHT22;37795;53.236;5.704;2022-09-09T16:20:19;19.50;72.00
51719;DHT22;37795;53.236;5.704;2022-09-09T16:22:45;19.40;71.70
51719;DHT22;37795;53.236;5.704;2022-09-09T16:25:11;19.30;72.10
51719;DHT22;37795;53.236;5.704;2022-09-09T16:27:37;19.20;72.50
51719;DHT22;37795;53.236;5.704;2022-09-09T16:30:03;19.10;73.00
51719;DHT22;37795;53.236;5.704;2022-09-09T16:32:29;18.90;73.40
51719;DHT22;37795;53.236;5.704;2022-09-09T16:34:55;18.90;74.10
51719;DHT22;37795;53.236;5.704;2022-09-09T16:37:20;18.60;74.00
51719;DHT22;37795;53.236;5.704;2022-09-09T16:39:46;18.30;73.50
51719;DHT22;37795;53.236;5.704;2022-09-09T16:42:12;18.10;74.20
51719;DHT22;37795;53.236;5.704;2022-09-09T16:44:37;18.10;74.70
51719;DHT22;37795;53.236;5.704;2022-09-09T16:47:03;17.80;75.20
51719;DHT22;37795;53.236;5.704;2022-09-09T16:49:29;17.60;75.90
51719;DHT22;37795;53.236;5.704;2022-09-09T16:51:58;17.70;75.80
51719;DHT22;37795;53.236;5.704;2022-09-09T16:54:23;17.70;75.50
51719;DHT22;37795;53.236;5.704;2022-09-09T16:56:50;17.70;74.60
51719;DHT22;37795;53.236;5.704;2022-09-09T16:59:18;17.90;73.90
51719;DHT22;37795;53.236;5.704;2022-09-09T17:01:45;18.10;73.50
51719;DHT22;37795;53.236;5.704;2022-09-09T17:04:17;18.20;73.40
51719;DHT22;37795;53.236;5.704;2022-09-09T17:06:49;18.90;71.30
51719;DHT22;37795;53.236;5.704;2022-09-09T17:09:16;18.90;72.40
51719;DHT22;37795;53.236;5.704;2022-09-09T17:11:42;18.80;73.50
51719;DHT22;37795;53.236;5.704;2022-09-09T17:14:10;19.20;71.50
51719;DHT22;37795;53.236;5.704;2022-09-09T17:16:36;19.20;71.40
51719;DHT22;37795;53.236;5.704;2022-09-09T17:19:03;18.70;73.60
51719;DHT22;37795;53.236;5.704;2022-09-09T17:21:29;18.40;74.10
51719;DHT22;37795;53.236;5.704;2022-09-09T17:23:55;18.30;75.40
51719;DHT22;37795;53.236;5.704;2022-09-09T17:26:21;18.00;76.10
51719;DHT22;37795;53.236;5.704;2022-09-09T17:28:47;18.00;76.90
51719;DHT22;37795;53.236;5.704;2022-09-09T17:31:14;17.90;76.50
51719;DHT22;37795;53.236;5.704;2022-09-09T17:33:40;17.80;76.40
51719;DHT22;37795;53.236;5.704;2022-09-09T17:36:08;17.80;76.40
51719;DHT22;37795;53.236;5.704;2022-09-09T17:38:34;17.80;76.80
51719;DHT22;37795;53.236;5.704;2022-09-09T17:41:01;17.60;76.70
51719;DHT22;37795;53.236;5.704;2022-09-09T17:43:26;17.60;77.20
51719;DHT22;37795;53.236;5.704;2022-09-09T17:45:52;17.50;77.40
51719;DHT22;37795;53.236;5.704;2022-09-09T17:48:18;17.50;77.80
51719;DHT22;37795;53.236;5.704;2022-09-09T17:50:43;17.40;78.10
51719;DHT22;37795;53.236;5.704;2022-09-09T17:53:09;17.40;78.70
51719;DHT22;37795;53.236;5.704;2022-09-09T17:55:34;17.30;78.50
51719;DHT22;37795;53.236;5.704;2022-09-09T17:58:00;17.20;78.90
51719;DHT22;37795;53.236;5.704;2022-09-09T18:00:26;17.10;79.20
51719;DHT22;37795;53.236;5.704;2022-09-09T18:02:51;17.10;79.50
51719;DHT22;37795;53.236;5.704;2022-09-09T18:05:17;17.10;79.60
51719;DHT22;37795;53.236;5.704;2022-09-09T18:07:43;17.00;79.70
51719;DHT22;37795;53.236;5.704;2022-09-09T18:10:09;17.00;79.90